createdAt,value
2018-11-03T00:00:36.020Z,6.00
2018-11-03T00:03:04.983Z,6.00
2018-11-03T00:05:33.555Z,5.90
2018-11-03T00:08:02.051Z,5.90
2018-11-03T00:10:30.567Z,5.90
2018-11-03T00:12:59.142Z,5.90
2018-11-03T00:15:27.676Z,5.80
2018-11-03T00:17:56.335Z,5.70
2018-11-03T00:20:24.923Z,5.90
2018-11-03T00:22:53.478Z,5.80
2018-11-03T00:25:22.014Z,5.70
2018-11-03T00:27:50.687Z,5.80
2018-11-03T00:30:19.190Z,5.80
2018-11-03T00:32:47.862Z,5.90
2018-11-03T00:35:16.491Z,5.80
2018-11-03T00:37:44.983Z,5.90
2018-11-03T00:40:14.627Z,5.90
2018-11-03T00:42:44.038Z,5.90
2018-11-03T00:45:13.484Z,5.90
2018-11-03T00:47:43.007Z,5.80
2018-11-03T00:50:13.848Z,5.80
2018-11-03T00:52:42.808Z,5.80
2018-11-03T00:55:12.315Z,5.80
2018-11-03T00:57:41.343Z,5.70
2018-11-03T01:00:12.287Z,5.60
2018-11-03T01:02:42.430Z,5.60
2018-11-03T01:05:11.621Z,5.70
2018-11-03T01:07:41.115Z,5.40
2018-11-03T01:10:09.983Z,5.40
2018-11-03T01:12:39.158Z,5.50
2018-11-03T01:15:09.892Z,5.60
2018-11-03T01:17:38.597Z,5.60
2018-11-03T01:20:08.612Z,5.60
2018-11-03T01:22:37.163Z,5.60
2018-11-03T01:25:05.975Z,5.50
2018-11-03T01:27:34.459Z,5.40
2018-11-03T01:30:03.130Z,5.50
2018-11-03T01:32:31.885Z,5.50
2018-11-03T01:35:00.528Z,5.50
2018-11-03T01:37:29.087Z,5.50
2018-11-03T01:39:57.662Z,5.50
2018-11-03T01:42:26.154Z,5.60
2018-11-03T01:44:54.719Z,5.50
2018-11-03T01:47:23.319Z,5.50
2018-11-03T01:49:51.821Z,5.40
2018-11-03T01:52:20.529Z,5.30
2018-11-03T01:54:49.206Z,5.20
2018-11-03T01:57:17.939Z,5.10
2018-11-03T01:59:46.492Z,5.10
2018-11-03T02:02:14.999Z,5.10
2018-11-03T02:04:43.502Z,5.10
2018-11-03T02:07:12.128Z,5.00
2018-11-03T02:09:40.648Z,5.10
2018-11-03T02:12:09.255Z,5.00
2018-11-03T02:14:37.779Z,4.90
2018-11-03T02:17:06.582Z,4.90
2018-11-03T02:19:35.099Z,4.80
2018-11-03T02:22:03.606Z,4.80
2018-11-03T02:24:32.046Z,4.80
2018-11-03T02:27:00.540Z,4.80
2018-11-03T02:29:29.168Z,4.90
2018-11-03T02:31:57.852Z,5.00
2018-11-03T02:34:26.300Z,4.90
2018-11-03T02:36:54.855Z,4.90
2018-11-03T02:39:23.384Z,5.00
2018-11-03T02:41:51.951Z,5.00
2018-11-03T02:44:20.562Z,5.00
2018-11-03T02:46:49.219Z,4.90
2018-11-03T02:49:17.890Z,4.90
2018-11-03T02:51:46.397Z,4.90
2018-11-03T02:54:14.948Z,4.70
2018-11-03T02:56:43.471Z,4.40
2018-11-03T02:59:12.091Z,4.40
2018-11-03T03:01:40.640Z,4.50
2018-11-03T03:04:09.099Z,4.50
2018-11-03T03:06:37.567Z,4.50
2018-11-03T03:09:07.282Z,4.50
2018-11-03T03:11:35.767Z,4.50
2018-11-03T03:14:04.455Z,4.60
2018-11-03T03:16:32.933Z,4.40
2018-11-03T03:19:01.404Z,4.40
2018-11-03T03:21:29.894Z,4.40
2018-11-03T03:23:58.349Z,4.40
2018-11-03T03:26:26.960Z,4.30
2018-11-03T03:28:55.511Z,4.20
2018-11-03T03:31:24.202Z,4.10
2018-11-03T03:33:52.653Z,4.20
2018-11-03T03:36:21.226Z,4.30
2018-11-03T03:38:49.763Z,4.10
2018-11-03T03:41:18.291Z,4.00
2018-11-03T03:43:46.859Z,4.00
2018-11-03T03:46:15.478Z,4.20
2018-11-03T03:48:44.120Z,4.20
2018-11-03T03:51:12.570Z,4.20
2018-11-03T03:53:41.126Z,4.10
2018-11-03T03:56:09.736Z,4.10
2018-11-03T03:58:38.307Z,4.20
2018-11-03T04:01:06.852Z,4.10
2018-11-03T04:03:35.728Z,4.10
2018-11-03T04:06:04.403Z,4.10
2018-11-03T04:08:32.884Z,4.20
2018-11-03T04:11:01.349Z,4.10
2018-11-03T04:13:29.806Z,4.10
2018-11-03T04:15:58.339Z,4.10
2018-11-03T04:18:26.804Z,4.20
2018-11-03T04:20:55.298Z,4.20
2018-11-03T04:23:24.027Z,4.00
2018-11-03T04:25:52.571Z,3.90
2018-11-03T04:28:21.140Z,3.80
2018-11-03T04:30:49.675Z,3.80
2018-11-03T04:33:18.315Z,3.80
2018-11-03T04:35:46.808Z,3.90
2018-11-03T04:38:15.539Z,3.90
2018-11-03T04:40:43.987Z,3.80
2018-11-03T04:43:12.560Z,3.90
2018-11-03T04:45:41.197Z,4.00
2018-11-03T04:48:09.661Z,4.00
2018-11-03T04:50:38.371Z,3.90
2018-11-03T04:53:06.863Z,3.80
2018-11-03T04:55:35.379Z,3.90
2018-11-03T04:58:03.991Z,4.00
2018-11-03T05:00:32.560Z,4.00
2018-11-03T05:03:01.043Z,5.20
2018-11-03T05:05:29.691Z,4.10
2018-11-03T05:07:58.258Z,4.00
2018-11-03T05:10:26.762Z,4.00
2018-11-03T05:12:55.319Z,4.00
2018-11-03T05:15:23.830Z,4.00
2018-11-03T05:17:52.499Z,3.90
2018-11-03T05:20:20.998Z,3.90
2018-11-03T05:22:49.650Z,3.90
2018-11-03T05:25:18.190Z,3.80
2018-11-03T05:27:46.815Z,3.70
2018-11-03T05:30:15.302Z,3.70
2018-11-03T05:32:43.947Z,3.70
2018-11-03T05:35:12.415Z,3.70
2018-11-03T05:37:41.010Z,3.70
2018-11-03T05:40:09.588Z,3.70
2018-11-03T05:42:38.116Z,3.70
2018-11-03T05:45:06.703Z,3.70
2018-11-03T05:47:35.179Z,3.70
2018-11-03T05:50:03.959Z,3.70
2018-11-03T05:52:32.423Z,3.70
2018-11-03T05:55:01.049Z,3.70
2018-11-03T05:57:29.558Z,3.70
2018-11-03T05:59:58.222Z,3.70
2018-11-03T06:02:26.768Z,3.70
2018-11-03T06:04:55.290Z,3.70
2018-11-03T06:07:23.990Z,3.60
2018-11-03T06:09:52.454Z,3.50
2018-11-03T06:12:21.007Z,3.50
2018-11-03T06:14:49.522Z,3.50
2018-11-03T06:17:18.063Z,3.50
2018-11-03T06:19:46.707Z,3.50
2018-11-03T06:22:15.268Z,3.40
2018-11-03T06:24:43.930Z,3.40
2018-11-03T06:27:12.387Z,3.50
2018-11-03T06:29:40.971Z,3.40
2018-11-03T06:32:09.436Z,3.20
2018-11-03T06:34:38.109Z,3.30
2018-11-03T06:37:06.887Z,3.20
2018-11-03T06:39:35.573Z,3.20
2018-11-03T06:42:04.159Z,3.30
2018-11-03T06:44:32.672Z,3.30
2018-11-03T06:47:01.235Z,3.40
2018-11-03T06:49:29.794Z,3.40
2018-11-03T06:51:58.349Z,3.60
2018-11-03T06:54:26.729Z,3.60
2018-11-03T06:56:55.228Z,3.50
2018-11-03T06:59:23.778Z,3.60
2018-11-03T07:01:52.377Z,3.50
2018-11-03T07:04:20.823Z,3.50
2018-11-03T07:06:49.515Z,3.60
2018-11-03T07:09:18.011Z,3.50
2018-11-03T07:11:46.732Z,3.50
2018-11-03T07:14:15.255Z,3.60
2018-11-03T07:16:43.938Z,3.60
2018-11-03T07:19:12.566Z,3.50
2018-11-03T07:21:41.201Z,3.40
2018-11-03T07:24:09.758Z,3.50
2018-11-03T07:26:38.335Z,3.50
2018-11-03T07:29:06.878Z,3.60
2018-11-03T07:31:35.478Z,3.60
2018-11-03T07:34:04.052Z,3.60
2018-11-03T07:36:32.523Z,3.70
2018-11-03T07:39:01.175Z,3.70
2018-11-03T07:41:29.799Z,3.80
2018-11-03T07:43:58.278Z,3.80
2018-11-03T07:46:26.766Z,3.90
2018-11-03T07:48:55.371Z,4.00
2018-11-03T07:51:23.745Z,4.00
2018-11-03T07:53:52.211Z,4.10
2018-11-03T07:56:20.854Z,4.20
2018-11-03T07:58:49.399Z,4.30
2018-11-03T08:01:17.975Z,4.40
2018-11-03T08:03:46.479Z,4.50
2018-11-03T08:06:15.258Z,4.60
2018-11-03T08:08:43.855Z,4.70
2018-11-03T08:11:12.591Z,4.80
2018-11-03T08:13:41.151Z,4.80
2018-11-03T08:16:09.659Z,4.90
2018-11-03T08:18:38.274Z,4.90
2018-11-03T08:21:06.988Z,5.10
2018-11-03T08:23:35.641Z,5.20
2018-11-03T08:26:04.293Z,5.30
2018-11-03T08:28:32.791Z,5.30
2018-11-03T08:31:01.464Z,5.30
2018-11-03T08:33:29.991Z,5.50
2018-11-03T08:35:58.455Z,5.60
2018-11-03T08:38:27.134Z,5.70
2018-11-03T08:40:55.687Z,5.80
2018-11-03T08:43:24.238Z,5.90
2018-11-03T08:45:52.736Z,5.90
2018-11-03T08:48:21.505Z,5.90
2018-11-03T08:50:49.989Z,6.00
2018-11-03T08:53:18.607Z,6.10
2018-11-03T08:55:47.114Z,6.20
2018-11-03T08:58:15.658Z,6.20
2018-11-03T09:00:44.203Z,6.30
2018-11-03T09:03:12.735Z,6.40
2018-11-03T09:05:41.374Z,6.40
2018-11-03T09:08:10.011Z,6.40
2018-11-03T09:10:38.523Z,6.40
2018-11-03T09:13:07.122Z,6.40
2018-11-03T09:15:35.651Z,6.50
2018-11-03T09:18:04.161Z,6.50
2018-11-03T09:20:32.813Z,6.50
2018-11-03T09:23:01.411Z,6.50
2018-11-03T09:25:29.932Z,6.50
2018-11-03T09:27:58.476Z,6.50
2018-11-03T09:30:26.951Z,6.60
2018-11-03T09:32:55.614Z,6.60
2018-11-03T09:35:24.118Z,6.70
2018-11-03T09:37:52.730Z,6.70
2018-11-03T09:40:21.279Z,6.80
2018-11-03T09:42:50.036Z,6.80
2018-11-03T09:45:18.614Z,7.00
2018-11-03T09:47:47.087Z,7.00
2018-11-03T09:50:16.256Z,7.10
2018-11-03T09:52:44.948Z,7.20
2018-11-03T09:55:15.485Z,7.20
2018-11-03T09:57:44.250Z,7.30
2018-11-03T10:00:15.628Z,7.40
2018-11-03T10:02:44.119Z,7.50
2018-11-03T10:05:13.661Z,7.50
2018-11-03T10:07:42.241Z,7.60
2018-11-03T10:10:16.307Z,7.70
2018-11-03T10:12:44.989Z,7.90
2018-11-03T10:15:15.075Z,7.90
2018-11-03T10:17:44.268Z,8.00
2018-11-03T10:20:12.839Z,8.10
2018-11-03T10:22:41.367Z,8.10
2018-11-03T10:25:14.218Z,8.20
2018-11-03T10:27:43.399Z,8.20
2018-11-03T10:30:13.516Z,8.30
2018-11-03T10:32:42.519Z,8.40
2018-11-03T10:35:11.903Z,8.50
2018-11-03T10:37:40.717Z,8.50
2018-11-03T10:40:12.298Z,8.50
2018-11-03T10:42:41.097Z,8.60
2018-11-03T10:45:11.312Z,8.60
2018-11-03T10:47:40.501Z,8.60
2018-11-03T10:50:11.847Z,8.70
2018-11-03T10:52:41.327Z,8.70
2018-11-03T10:55:11.167Z,8.80
2018-11-03T10:57:39.930Z,8.80
2018-11-03T11:00:15.500Z,8.90
2018-11-03T11:02:49.747Z,9.00
2018-11-03T11:05:23.699Z,9.00
2018-11-03T11:07:57.479Z,9.10
2018-11-03T11:10:31.546Z,9.20
2018-11-03T11:13:33.897Z,9.20
2018-11-03T11:16:02.511Z,9.20
2018-11-03T11:18:30.937Z,9.20
2018-11-03T11:20:59.471Z,9.20
2018-11-03T11:23:28.163Z,9.30
2018-11-03T11:25:56.622Z,9.30
2018-11-03T11:28:25.163Z,9.40
2018-11-03T11:30:53.612Z,9.40
2018-11-03T11:33:22.105Z,9.40
2018-11-03T11:35:50.582Z,9.40
2018-11-03T11:38:19.169Z,9.40
2018-11-03T11:40:47.707Z,9.40
2018-11-03T11:43:16.348Z,9.30
2018-11-03T11:45:44.975Z,9.30
2018-11-03T11:48:13.477Z,9.40
2018-11-03T11:50:42.143Z,9.40
2018-11-03T11:53:10.621Z,9.50
2018-11-03T11:55:39.167Z,9.50
2018-11-03T11:58:07.614Z,9.50
2018-11-03T12:00:36.284Z,9.50
2018-11-03T12:03:04.891Z,9.50
2018-11-03T12:05:33.410Z,9.50
2018-11-03T12:08:02.060Z,9.40
2018-11-03T12:10:30.630Z,9.50
2018-11-03T12:12:59.079Z,9.50
2018-11-03T12:15:27.601Z,9.50
2018-11-03T12:17:56.210Z,9.50
2018-11-03T12:20:24.797Z,9.50
2018-11-03T12:22:53.409Z,9.50
2018-11-03T12:25:21.994Z,9.50
2018-11-03T12:27:50.573Z,9.50
2018-11-03T12:30:19.115Z,9.50
2018-11-03T12:32:47.627Z,9.50
2018-11-03T12:35:16.182Z,9.50
2018-11-03T12:37:44.741Z,9.50
2018-11-03T12:40:14.662Z,9.60
2018-11-03T12:42:43.150Z,9.50
2018-11-03T12:45:12.495Z,9.50
2018-11-03T12:47:41.559Z,9.50
2018-11-03T12:50:12.050Z,9.50
2018-11-03T12:52:40.783Z,9.50
2018-11-03T12:55:10.267Z,9.50
2018-11-03T12:57:39.376Z,9.40
2018-11-03T13:00:09.734Z,9.40
2018-11-03T13:02:38.994Z,9.40
2018-11-03T13:05:08.467Z,9.40
2018-11-03T13:07:37.455Z,9.40
2018-11-03T13:10:07.464Z,9.30
2018-11-03T13:12:36.282Z,9.30
2018-11-03T13:15:05.299Z,9.40
2018-11-03T13:17:33.855Z,9.40
2018-11-03T13:20:02.527Z,9.50
2018-11-03T13:22:31.088Z,9.40
2018-11-03T13:24:59.649Z,9.50
2018-11-03T13:27:28.168Z,9.50
2018-11-03T13:29:56.718Z,9.50
2018-11-03T13:32:25.190Z,9.50
2018-11-03T13:34:53.889Z,9.50
2018-11-03T13:37:22.367Z,9.50
2018-11-03T13:39:51.294Z,9.50
2018-11-03T13:42:19.900Z,9.50
2018-11-03T13:44:48.351Z,9.50
2018-11-03T13:47:17.079Z,9.50
2018-11-03T13:49:45.590Z,9.50
2018-11-03T13:52:14.210Z,9.50
2018-11-03T13:54:42.691Z,9.50
2018-11-03T13:57:11.484Z,9.50
2018-11-03T13:59:39.867Z,9.50
2018-11-03T14:02:08.351Z,9.50
2018-11-03T14:04:37.048Z,9.50
2018-11-03T14:07:05.815Z,9.50
2018-11-03T14:09:34.388Z,9.50
2018-11-03T14:12:02.992Z,9.50
2018-11-03T14:14:31.612Z,9.50
2018-11-03T14:17:00.112Z,9.40
2018-11-03T14:19:28.792Z,9.40
2018-11-03T14:21:57.365Z,9.50
2018-11-03T14:24:25.885Z,9.40
2018-11-03T14:26:54.367Z,9.50
2018-11-03T14:29:22.935Z,9.40
2018-11-03T14:31:51.556Z,9.40
2018-11-03T14:34:20.024Z,9.30
2018-11-03T14:36:48.697Z,9.30
2018-11-03T14:39:17.231Z,9.30
2018-11-03T14:41:45.847Z,9.30
2018-11-03T14:44:14.367Z,9.30
2018-11-03T14:46:42.933Z,9.30
2018-11-03T14:49:11.490Z,9.20
2018-11-03T14:51:39.995Z,9.20
2018-11-03T14:54:08.631Z,9.20
2018-11-03T14:56:37.174Z,9.10
2018-11-03T14:59:05.867Z,9.10
2018-11-03T15:01:34.387Z,9.10
2018-11-03T15:04:02.964Z,9.10
2018-11-03T15:06:31.519Z,9.10
2018-11-03T15:09:00.083Z,9.00
2018-11-03T15:11:28.599Z,9.00
2018-11-03T15:13:57.313Z,9.00
2018-11-03T15:16:25.664Z,8.90
2018-11-03T15:18:54.224Z,8.90
2018-11-03T15:21:22.827Z,9.00
2018-11-03T15:23:51.350Z,8.90
2018-11-03T15:26:20.051Z,8.80
2018-11-03T15:28:48.635Z,8.80
2018-11-03T15:31:17.203Z,8.80
2018-11-03T15:33:45.791Z,8.80
2018-11-03T15:36:14.344Z,8.70
2018-11-03T15:38:43.060Z,8.70
2018-11-03T15:41:11.785Z,8.60
2018-11-03T15:43:40.236Z,8.60
2018-11-03T15:46:08.759Z,8.60
2018-11-03T15:48:37.258Z,8.50
2018-11-03T15:51:05.871Z,8.50
2018-11-03T15:53:34.507Z,8.40
2018-11-03T15:56:03.016Z,8.40
2018-11-03T15:58:31.508Z,8.30
2018-11-03T16:01:01.234Z,8.20
2018-11-03T16:03:29.760Z,8.20
2018-11-03T16:05:58.312Z,8.10
2018-11-03T16:08:26.987Z,8.00
2018-11-03T16:10:55.549Z,7.90
2018-11-03T16:13:24.091Z,7.90
2018-11-03T16:15:52.590Z,7.80
2018-11-03T16:18:21.127Z,7.70
2018-11-03T16:20:49.692Z,7.70
2018-11-03T16:23:18.183Z,7.50
2018-11-03T16:25:46.736Z,7.60
2018-11-03T16:28:15.223Z,7.50
2018-11-03T16:30:43.768Z,7.50
2018-11-03T16:33:12.287Z,7.50
2018-11-03T16:35:40.888Z,7.50
2018-11-03T16:38:09.322Z,7.40
2018-11-03T16:40:37.880Z,7.40
2018-11-03T16:43:06.448Z,7.30
2018-11-03T16:45:35.055Z,7.20
2018-11-03T16:48:03.588Z,7.20
2018-11-03T16:50:32.283Z,7.10
2018-11-03T16:53:00.807Z,7.10
2018-11-03T16:55:29.534Z,7.00
2018-11-03T16:57:57.963Z,7.10
2018-11-03T17:00:26.502Z,7.00
2018-11-03T17:02:55.191Z,7.00
2018-11-03T17:05:23.715Z,6.90
2018-11-03T17:07:52.246Z,6.90
2018-11-03T17:10:20.755Z,6.90
2018-11-03T17:12:49.504Z,6.80
2018-11-03T17:15:18.127Z,6.80
2018-11-03T17:17:46.683Z,6.80
2018-11-03T17:20:15.268Z,6.80
2018-11-03T17:22:44.028Z,6.80
2018-11-03T17:25:13.324Z,6.80
2018-11-03T17:27:41.740Z,6.80
2018-11-03T17:30:13.029Z,6.80
2018-11-03T17:32:41.972Z,6.90
2018-11-03T17:35:11.067Z,6.90
2018-11-03T17:37:39.902Z,6.90
2018-11-03T17:40:09.460Z,6.90
2018-11-03T17:42:38.358Z,6.80
2018-11-03T17:45:08.258Z,6.80
2018-11-03T17:47:37.095Z,6.80
2018-11-03T17:50:06.887Z,6.70
2018-11-03T17:52:35.412Z,6.70
2018-11-03T17:55:04.068Z,6.70
2018-11-03T17:57:32.653Z,6.70
2018-11-03T18:00:01.208Z,6.70
2018-11-03T18:02:29.672Z,6.70
2018-11-03T18:04:58.219Z,6.70
2018-11-03T18:07:26.751Z,6.70
2018-11-03T18:09:55.459Z,6.70
2018-11-03T18:12:23.994Z,6.60
2018-11-03T18:14:52.597Z,6.60
2018-11-03T18:17:21.088Z,6.70
2018-11-03T18:19:49.798Z,6.60
2018-11-03T18:22:18.211Z,6.60
2018-11-03T18:24:46.816Z,6.60
2018-11-03T18:27:15.290Z,6.60
2018-11-03T18:29:44.007Z,6.60
2018-11-03T18:32:12.551Z,6.50
2018-11-03T18:34:41.176Z,6.40
2018-11-03T18:37:09.669Z,6.40
2018-11-03T18:39:38.199Z,6.30
2018-11-03T18:42:06.819Z,6.20
2018-11-03T18:44:35.314Z,6.30
2018-11-03T18:47:04.087Z,6.20
2018-11-03T18:49:32.581Z,6.20
2018-11-03T18:52:01.059Z,6.20
2018-11-03T18:54:29.698Z,6.20
2018-11-03T18:56:58.227Z,6.10
2018-11-03T18:59:26.764Z,6.00
2018-11-03T19:01:55.291Z,6.00
2018-11-03T19:04:23.873Z,5.90
2018-11-03T19:06:52.442Z,5.90
2018-11-03T19:09:21.049Z,5.90
2018-11-03T19:11:49.738Z,5.90
2018-11-03T19:14:18.243Z,5.90
2018-11-03T19:16:46.850Z,5.80
2018-11-03T19:19:15.368Z,5.80
2018-11-03T19:21:43.919Z,5.80
2018-11-03T19:24:12.742Z,5.90
2018-11-03T19:26:41.219Z,5.80
2018-11-03T19:29:10.127Z,5.80
2018-11-03T19:31:38.689Z,5.70
2018-11-03T19:34:07.280Z,5.70
2018-11-03T19:36:35.806Z,5.60
2018-11-03T19:39:05.617Z,5.60
2018-11-03T19:41:34.217Z,5.70
2018-11-03T19:44:02.771Z,5.70
2018-11-03T19:46:31.313Z,5.80
2018-11-03T19:48:59.852Z,5.70
2018-11-03T19:51:28.415Z,5.70
2018-11-03T19:53:56.959Z,5.60
2018-11-03T19:56:25.478Z,5.60
2018-11-03T19:58:54.102Z,5.60
2018-11-03T20:01:22.605Z,5.60
2018-11-03T20:03:51.187Z,5.60
2018-11-03T20:06:19.887Z,5.70
2018-11-03T20:08:48.512Z,5.70
2018-11-03T20:11:17.199Z,5.70
2018-11-03T20:13:45.739Z,5.70
2018-11-03T20:16:14.202Z,5.60
2018-11-03T20:18:42.743Z,5.70
2018-11-03T20:21:11.427Z,5.60
2018-11-03T20:23:39.910Z,5.60
2018-11-03T20:26:08.505Z,5.70
2018-11-03T20:28:37.220Z,5.70
2018-11-03T20:31:05.937Z,5.60
2018-11-03T20:33:34.530Z,5.60
2018-11-03T20:36:03.132Z,5.40
2018-11-03T20:38:31.594Z,5.50
2018-11-03T20:41:00.236Z,5.40
2018-11-03T20:43:28.723Z,5.40
2018-11-03T20:45:57.401Z,5.40
2018-11-03T20:48:26.025Z,5.40
2018-11-03T20:50:59.858Z,5.30
2018-11-03T20:53:28.476Z,5.30
2018-11-03T20:55:56.931Z,5.20
2018-11-03T20:58:25.507Z,5.20
2018-11-03T21:00:54.011Z,5.20
2018-11-03T21:03:22.551Z,5.10
2018-11-03T21:05:51.123Z,5.00
2018-11-03T21:08:19.766Z,5.00
2018-11-03T21:10:48.385Z,5.00
2018-11-03T21:13:17.239Z,5.00
2018-11-03T21:15:45.874Z,5.00
2018-11-03T21:18:14.578Z,5.10
2018-11-03T21:20:43.097Z,5.10
2018-11-03T21:23:11.680Z,5.20
2018-11-03T21:25:40.162Z,5.20
2018-11-03T21:28:08.727Z,5.20
2018-11-03T21:30:37.325Z,5.10
2018-11-03T21:33:06.522Z,5.20
2018-11-03T21:35:34.828Z,5.20
2018-11-03T21:38:03.384Z,5.20
2018-11-03T21:40:32.056Z,5.10
2018-11-03T21:43:00.610Z,5.00
2018-11-03T21:45:29.292Z,5.00
2018-11-03T21:47:57.804Z,5.00
2018-11-03T21:50:26.627Z,5.00
2018-11-03T21:52:55.281Z,5.10
2018-11-03T21:55:23.818Z,5.00
2018-11-03T21:57:52.320Z,5.10
2018-11-03T22:00:20.773Z,5.10
2018-11-03T22:02:50.019Z,5.10
2018-11-03T22:05:18.518Z,5.10
2018-11-03T22:07:47.057Z,5.10
2018-11-03T22:10:15.573Z,5.10
2018-11-03T22:12:44.449Z,4.90
2018-11-03T22:15:12.998Z,4.80
2018-11-03T22:17:41.523Z,4.70
2018-11-03T22:20:11.186Z,4.60
2018-11-03T22:22:39.990Z,4.50
2018-11-03T22:25:10.010Z,4.40
2018-11-03T22:27:38.865Z,4.30
2018-11-03T22:30:09.123Z,4.20
2018-11-03T22:32:37.991Z,4.10
2018-11-03T22:35:07.003Z,4.00
2018-11-03T22:37:35.714Z,4.10
2018-11-03T22:40:05.042Z,4.10
2018-11-03T22:42:33.702Z,4.20
2018-11-03T22:45:02.452Z,4.00
2018-11-03T22:47:31.117Z,4.00
2018-11-03T22:49:59.846Z,3.90
2018-11-03T22:52:28.346Z,3.90
2018-11-03T22:54:57.224Z,3.90
2018-11-03T22:57:25.698Z,3.80
2018-11-03T22:59:54.383Z,3.90
2018-11-03T23:02:22.900Z,3.90
2018-11-03T23:04:51.446Z,3.80
2018-11-03T23:07:20.142Z,3.90
2018-11-03T23:09:48.623Z,4.00
2018-11-03T23:12:17.195Z,3.90
2018-11-03T23:14:45.811Z,3.90
2018-11-03T23:17:14.358Z,3.90
2018-11-03T23:19:42.954Z,3.80
2018-11-03T23:22:11.456Z,3.80
2018-11-03T23:24:40.006Z,3.70
2018-11-03T23:27:08.563Z,3.70
2018-11-03T23:29:37.684Z,3.70
2018-11-03T23:32:06.431Z,3.70
2018-11-03T23:34:35.011Z,3.70
2018-11-03T23:37:03.599Z,3.70
2018-11-03T23:39:32.091Z,3.80
2018-11-03T23:42:00.707Z,3.70
2018-11-03T23:44:29.383Z,3.50
2018-11-03T23:46:57.911Z,3.50
2018-11-03T23:49:26.400Z,3.60
2018-11-03T23:51:54.915Z,3.60
2018-11-03T23:54:23.651Z,3.50
2018-11-03T23:56:52.131Z,3.50
2018-11-03T23:59:20.751Z,3.60
